Time;durP1;ratioP1;P1;durP2;ratioP2;P2;SDS_P1;SDS_P2;PMS_P1;PMS_P2;Temp;Humidity;BMP_temperature;BMP_pressure;BME280_temperature;BME280_humidity;BME280_pressure;Samples;Min_cycle;Max_cycle;Signal;HPM_P1;HPM_P2
2022/12/09 00:00:39;;;;;;;31.27;17.90;;;;;;;3.88;100.00;100657.63;4993153;28;20054;-71
2022/12/09 00:03:06;;;;;;;31.38;18.13;;;;;;;3.85;100.00;100652.63;5015140;28;20045;-71
2022/12/09 00:05:33;;;;;;;29.83;17.13;;;;;;;3.85;100.00;100650.03;5005454;28;20049;-70
2022/12/09 00:07:59;;;;;;;31.88;19.10;;;;;;;3.87;100.00;100649.94;5013401;28;20402;-70
2022/12/09 00:10:26;;;;;;;31.77;18.60;;;;;;;3.90;100.00;100649.69;5005281;28;20054;-71
2022/12/09 00:12:54;;;;;;;31.90;18.30;;;;;;;3.94;100.00;100646.81;5019807;28;20570;-70
2022/12/09 00:15:21;;;;;;;30.92;17.52;;;;;;;3.96;100.00;100646.69;5015839;28;20060;-71
2022/12/09 00:17:48;;;;;;;31.08;17.88;;;;;;;3.94;100.00;100651.19;5009710;28;20054;-71
2022/12/09 00:20:14;;;;;;;30.85;17.98;;;;;;;3.92;100.00;100645.22;5016205;28;20502;-71
2022/12/09 00:22:40;;;;;;;30.80;17.42;;;;;;;3.91;100.00;100647.00;5010531;28;20083;-71
2022/12/09 00:25:07;;;;;;;32.17;19.30;;;;;;;3.90;100.00;100649.69;5026551;28;20044;-70
2022/12/09 00:27:34;;;;;;;31.08;17.73;;;;;;;3.91;100.00;100641.00;5030440;28;20030;-71
2022/12/09 00:30:01;;;;;;;29.08;17.80;;;;;;;3.95;100.00;100640.66;5019168;28;20084;-70
2022/12/09 00:32:27;;;;;;;30.02;17.23;;;;;;;3.93;100.00;100650.31;5012339;28;20046;-72
2022/12/09 00:34:54;;;;;;;31.98;18.05;;;;;;;3.92;100.00;100642.63;5001713;28;20069;-71
2022/12/09 00:37:21;;;;;;;32.58;17.40;;;;;;;3.89;100.00;100637.69;5011993;28;20136;-71
2022/12/09 00:39:47;;;;;;;29.65;17.73;;;;;;;3.90;100.00;100653.16;5007755;28;20434;-70
2022/12/09 00:42:14;;;;;;;29.98;18.42;;;;;;;3.89;100.00;100646.28;5014847;28;20068;-72
2022/12/09 00:44:40;;;;;;;31.77;18.02;;;;;;;3.89;100.00;100650.66;4988375;28;20045;-72
2022/12/09 00:47:07;;;;;;;32.97;18.27;;;;;;;3.90;100.00;100640.16;5012396;28;20050;-71
2022/12/09 00:49:33;;;;;;;32.25;18.40;;;;;;;3.92;100.00;100647.81;5009467;28;20045;-71
2022/12/09 00:52:00;;;;;;;32.47;20.38;;;;;;;3.91;100.00;100649.59;4996733;28;20072;-71
2022/12/09 00:54:26;;;;;;;36.17;19.98;;;;;;;3.95;100.00;100645.03;5010477;28;20487;-71
2022/12/09 00:56:55;;;;;;;34.13;20.85;;;;;;;3.96;100.00;100646.69;5003819;28;20064;-71
2022/12/09 00:59:22;;;;;;;35.47;20.98;;;;;;;3.94;100.00;100641.63;5009190;28;20049;-71
2022/12/09 01:01:48;;;;;;;33.97;19.60;;;;;;;3.98;100.00;100644.81;5001190;28;20057;-71
2022/12/09 01:04:16;;;;;;;36.38;21.88;;;;;;;4.02;100.00;100646.28;5005235;28;20057;-71
2022/12/09 01:06:42;;;;;;;36.17;21.65;;;;;;;4.05;100.00;100642.63;5011456;28;20474;-70
2022/12/09 01:09:09;;;;;;;35.95;22.38;;;;;;;4.06;100.00;100649.47;5004113;28;20228;-73
2022/12/09 01:11:36;;;;;;;36.35;22.60;;;;;;;4.06;100.00;100647.72;5015755;28;20127;-71
2022/12/09 01:14:02;;;;;;;41.72;24.35;;;;;;;4.10;100.00;100654.34;5004978;28;20077;-72
2022/12/09 01:16:32;;;;;;;33.10;20.23;;;;;;;4.11;100.00;100642.19;5001482;28;20086;-70
2022/12/09 01:19:01;;;;;;;34.40;20.67;;;;;;;4.13;100.00;100645.50;4984372;28;20045;-71
2022/12/09 01:21:29;;;;;;;36.42;21.55;;;;;;;4.12;100.00;100646.44;5008074;28;20065;-70
2022/12/09 01:23:55;;;;;;;39.53;23.90;;;;;;;4.12;100.00;100652.47;5011728;28;20068;-72
2022/12/09 01:26:22;;;;;;;37.67;22.60;;;;;;;4.12;100.00;100656.84;5003821;28;20050;-72
2022/12/09 01:28:51;;;;;;;35.72;21.25;;;;;;;4.13;100.00;100655.88;5011194;28;20050;-71
2022/12/09 01:31:20;;;;;;;38.60;22.73;;;;;;;4.12;100.00;100649.03;4998134;28;20580;-71
2022/12/09 01:33:47;;;;;;;35.55;20.63;;;;;;;4.08;100.00;100652.78;5012090;28;20057;-70
2022/12/09 01:36:20;;;;;;;37.33;22.40;;;;;;;4.08;100.00;100658.00;5015657;28;20459;-71
2022/12/09 01:38:47;;;;;;;34.53;21.00;;;;;;;4.10;100.00;100658.72;5006044;28;20133;-73
2022/12/09 01:41:15;;;;;;;37.03;21.48;;;;;;;4.10;100.00;100663.91;5012606;28;20056;-71
2022/12/09 01:43:43;;;;;;;37.08;22.15;;;;;;;4.08;100.00;100664.00;5004887;28;20569;-72
2022/12/09 01:46:10;;;;;;;42.80;22.13;;;;;;;3.98;100.00;100665.59;5003204;28;20469;-70
2022/12/09 01:48:38;;;;;;;35.72;21.00;;;;;;;3.97;100.00;100667.34;4997204;28;20064;-71
2022/12/09 01:51:10;;;;;;;;;;;;;;;3.99;100.00;100667.22;5008604;28;20103;-72
2022/12/09 01:53:40;;;;;;;33.55;20.17;;;;;;;3.97;100.00;100669.94;5000482;28;19972;-71
2022/12/09 01:56:13;;;;;;;35.85;22.33;;;;;;;4.00;100.00;100668.06;5009213;28;20049;-71
2022/12/09 01:58:40;;;;;;;34.22;20.60;;;;;;;3.95;100.00;100664.03;5003627;28;20053;-71
2022/12/09 02:01:07;;;;;;;34.55;20.20;;;;;;;3.95;100.00;100664.03;4996202;28;20053;-71
2022/12/09 02:03:33;;;;;;;34.45;20.35;;;;;;;3.94;100.00;100670.16;5007545;28;20100;-71
2022/12/09 02:06:00;;;;;;;35.35;20.73;;;;;;;3.89;100.00;100664.44;5000855;28;20046;-72
2022/12/09 02:08:27;;;;;;;33.80;19.73;;;;;;;3.85;100.00;100672.56;5004939;28;20049;-72
2022/12/09 02:11:16;;;;;;;32.80;20.85;;;;;;;3.84;100.00;100663.97;5003542;28;20046;-72
2022/12/09 02:14:02;;;;;;;36.28;21.35;;;;;;;3.72;100.00;100662.19;5001438;28;20069;-72
2022/12/09 02:16:36;;;;;;;35.80;20.90;;;;;;;3.64;100.00;100656.72;4991351;28;20449;-71
2022/12/09 02:19:47;;;;;;;34.15;19.58;;;;;;;3.56;100.00;100665.84;5002243;28;20509;-72
2022/12/09 02:22:19;;;;;;;30.83;19.08;;;;;;;3.47;100.00;100665.63;5007252;28;20049;-71
2022/12/09 02:24:56;;;;;;;36.22;20.55;;;;;;;3.34;100.00;100661.28;4999439;28;20068;-72
2022/12/09 02:27:33;;;;;;;31.45;19.00;;;;;;;3.29;100.00;100658.19;5005234;28;20050;-71
2022/12/09 02:29:59;;;;;;;31.83;18.98;;;;;;;3.19;100.00;100659.72;4998134;28;20045;-71
2022/12/09 02:33:06;;;;;;;34.17;19.90;;;;;;;3.22;100.00;100661.31;5007986;28;20058;-72
2022/12/09 02:35:49;;;;;;;29.30;18.43;;;;;;;3.15;100.00;100655.69;4994632;28;20259;-72
2022/12/09 02:38:21;;;;;;;34.55;20.25;;;;;;;3.13;100.00;100649.75;5007202;28;20053;-72
2022/12/09 02:41:05;;;;;;;34.45;19.92;;;;;;;3.15;100.00;100653.91;5004638;28;20486;-69
2022/12/09 02:43:36;;;;;;;34.42;19.42;;;;;;;3.17;100.00;100646.88;5003979;28;20056;-70
2022/12/09 02:46:07;;;;;;;38.97;20.25;;;;;;;3.20;100.00;100651.03;5003137;28;20414;-72
2022/12/09 02:48:38;;;;;;;32.50;20.10;;;;;;;3.22;100.00;100646.56;5009521;28;20056;-71
2022/12/09 02:51:11;;;;;;;32.85;19.42;;;;;;;3.23;100.00;100656.00;5011296;28;20447;-71
2022/12/09 02:53:39;;;;;;;36.78;20.27;;;;;;;3.23;100.00;100644.78;5001281;28;20046;-73
2022/12/09 02:56:07;;;;;;;33.97;19.52;;;;;;;3.21;100.00;100649.25;5007089;28;20489;-71
2022/12/09 02:58:34;;;;;;;36.38;19.67;;;;;;;3.17;100.00;100639.13;4994508;28;20391;-71
2022/12/09 03:01:01;;;;;;;35.92;19.02;;;;;;;3.17;100.00;100641.69;5007153;28;20090;-71
2022/12/09 03:03:31;;;;;;;38.30;20.70;;;;;;;3.21;100.00;100647.47;4999897;28;20085;-71
2022/12/09 03:06:08;;;;;;;36.83;21.73;;;;;;;3.16;100.00;100641.81;5008527;28;20128;-71
2022/12/09 03:08:41;;;;;;;34.70;20.58;;;;;;;3.21;100.00;100634.53;5000544;28;20053;-71
2022/12/09 03:11:12;;;;;;;33.78;18.83;;;;;;;3.22;100.00;100641.38;4985946;28;20057;-71
2022/12/09 03:14:17;;;;;;;35.42;19.13;;;;;;;3.20;100.00;100640.66;5005831;28;20050;-70
2022/12/09 03:17:16;;;;;;;35.42;19.38;;;;;;;3.22;100.00;100640.56;5002087;28;20291;-71
2022/12/09 03:19:47;;;;;;;32.05;18.98;;;;;;;3.16;100.00;100642.63;5010874;28;20053;-71
2022/12/09 03:22:18;;;;;;;30.77;17.90;;;;;;;3.15;100.00;100628.00;5007317;28;20363;-71
2022/12/09 03:25:05;;;;;;;32.22;18.30;;;;;;;3.21;100.00;100634.53;5002865;28;20139;-71
2022/12/09 03:27:47;;;;;;;30.60;17.30;;;;;;;3.24;100.00;100638.69;5001283;28;20042;-71
2022/12/09 03:30:15;;;;;;;31.42;17.42;;;;;;;3.21;100.00;100641.47;5012833;28;20056;-71
2022/12/09 03:32:43;;;;;;;30.58;17.27;;;;;;;3.24;100.00;100631.75;5000014;28;20419;-71
2022/12/09 03:35:18;;;;;;;29.77;16.27;;;;;;;3.26;100.00;100629.88;4993093;28;20058;-70
2022/12/09 03:37:45;;;;;;;31.88;17.40;;;;;;;3.28;100.00;100628.00;4983677;28;20490;-66
2022/12/09 03:40:15;;;;;;;32.17;17.10;;;;;;;3.33;100.00;100623.34;5005838;28;20106;-66
2022/12/09 03:42:57;;;;;;;29.02;15.57;;;;;;;3.38;100.00;100617.00;5007281;28;20049;-66
2022/12/09 03:45:24;;;;;;;31.15;16.67;;;;;;;3.38;100.00;100617.84;5003402;28;20084;-66
2022/12/09 03:47:51;;;;;;;31.15;17.20;;;;;;;3.40;100.00;100618.56;5007578;28;20469;-66
2022/12/09 03:50:22;;;;;;;28.63;15.63;;;;;;;3.40;100.00;100610.78;5003332;28;20537;-66
2022/12/09 03:53:05;;;;;;;28.60;15.50;;;;;;;3.45;100.00;100615.63;5007976;28;20481;-71
2022/12/09 03:55:53;;;;;;;29.58;16.15;;;;;;;3.43;100.00;100610.59;4993900;28;20483;-71
2022/12/09 03:58:19;;;;;;;29.38;14.95;;;;;;;3.42;100.00;100614.09;5008750;28;20429;-71
2022/12/09 04:00:47;;;;;;;27.67;16.00;;;;;;;3.39;100.00;100603.09;5002567;28;20053;-72
2022/12/09 04:03:16;;;;;;;28.80;16.73;;;;;;;3.35;100.00;100603.31;5011509;28;20054;-71
2022/12/09 04:05:44;;;;;;;32.53;15.32;;;;;;;3.31;100.00;100601.88;5005239;28;20294;-71
2022/12/09 04:08:11;;;;;;;28.60;16.00;;;;;;;3.28;100.00;100604.66;5004981;28;20422;-71
2022/12/09 04:10:37;;;;;;;27.50;15.13;;;;;;;3.24;100.00;100608.41;5005812;28;20058;-71
2022/12/09 04:13:04;;;;;;;27.30;15.25;;;;;;;3.24;100.00;100603.22;5003819;28;20050;-71
2022/12/09 04:15:30;;;;;;;27.00;15.02;;;;;;;3.25;100.00;100598.84;5010440;28;20064;-70
2022/12/09 04:17:57;;;;;;;26.38;15.15;;;;;;;3.23;100.00;100598.97;5007590;28;20064;-71
2022/12/09 04:20:23;;;;;;;24.65;14.27;;;;;;;3.24;100.00;100597.22;5011910;28;20534;-71
2022/12/09 04:22:50;;;;;;;28.75;15.30;;;;;;;3.24;100.00;100607.59;5008801;28;20054;-71
2022/12/09 04:25:16;;;;;;;28.10;15.35;;;;;;;3.24;100.00;100600.63;4998157;28;20149;-71
2022/12/09 04:27:43;;;;;;;28.23;15.23;;;;;;;3.22;100.00;100604.28;5011615;28;20557;-71
2022/12/09 04:30:10;;;;;;;29.17;15.57;;;;;;;3.24;100.00;100599.81;5007534;28;20053;-70
2022/12/09 04:32:37;;;;;;;26.63;14.57;;;;;;;3.28;100.00;100604.66;5012226;28;20058;-71
2022/12/09 04:35:04;;;;;;;25.20;14.02;;;;;;;3.31;100.00;100601.88;5004095;28;20053;-71
2022/12/09 04:37:32;;;;;;;27.33;15.02;;;;;;;3.30;100.00;100596.78;5003353;28;20046;-70
2022/12/09 04:39:58;;;;;;;28.15;14.63;;;;;;;3.33;100.00;100607.78;5013295;28;20049;-71
2022/12/09 04:42:27;;;;;;;26.77;14.25;;;;;;;3.40;100.00;100608.19;5006302;28;20061;-69
2022/12/09 04:44:53;;;;;;;23.70;14.00;;;;;;;3.38;100.00;100599.69;5010859;28;20073;-71
2022/12/09 04:47:20;;;;;;;25.30;14.50;;;;;;;3.40;100.00;100608.19;5005727;28;20158;-71
2022/12/09 04:49:47;;;;;;;29.13;14.70;;;;;;;3.43;100.00;100614.91;5006396;28;20231;-69
2022/12/09 04:52:16;;;;;;;28.63;14.18;;;;;;;3.48;100.00;100616.25;5004259;28;20050;-71
2022/12/09 04:54:43;;;;;;;28.85;15.27;;;;;;;3.44;100.00;100611.41;5011235;28;20049;-71
2022/12/09 04:57:10;;;;;;;24.05;13.75;;;;;;;3.46;100.00;100619.91;5008602;28;20490;-70
2022/12/09 04:59:37;;;;;;;26.77;14.63;;;;;;;3.45;100.00;100615.63;5003736;28;20533;-71
2022/12/09 05:02:04;;;;;;;24.75;14.77;;;;;;;3.39;100.00;100611.69;5007575;28;20081;-70
2022/12/09 05:04:31;;;;;;;25.33;14.02;;;;;;;3.41;100.00;100612.47;4999550;28;20062;-70
2022/12/09 05:06:58;;;;;;;26.42;14.40;;;;;;;3.42;100.00;100608.91;5006275;28;20053;-71
2022/12/09 05:09:25;;;;;;;28.17;14.63;;;;;;;3.37;100.00;100608.38;5006461;28;20088;-70
2022/12/09 05:11:52;;;;;;;28.83;15.50;;;;;;;3.40;100.00;100613.38;5010108;28;20145;-70
2022/12/09 05:14:19;;;;;;;22.38;13.18;;;;;;;3.43;100.00;100607.13;5011079;28;20053;-71
2022/12/09 05:16:45;;;;;;;24.83;13.75;;;;;;;3.43;100.00;100607.13;5002814;28;20136;-71
2022/12/09 05:19:12;;;;;;;24.77;13.60;;;;;;;3.44;100.00;100606.22;5007469;28;20052;-71
2022/12/09 05:21:39;;;;;;;25.50;14.30;;;;;;;3.43;100.00;100609.72;4980058;28;20096;-70
2022/12/09 05:24:06;;;;;;;25.80;13.32;;;;;;;3.38;100.00;100607.47;5012715;28;20053;-70
2022/12/09 05:26:33;;;;;;;26.88;14.07;;;;;;;3.35;100.00;100608.50;5001771;28;20086;-70
2022/12/09 05:28:59;;;;;;;28.58;14.82;;;;;;;3.35;100.00;100616.28;5009032;28;20414;-70
2022/12/09 05:31:26;;;;;;;24.80;13.82;;;;;;;3.40;100.00;100612.56;5010758;28;20050;-70
2022/12/09 05:33:53;;;;;;;28.65;14.40;;;;;;;3.39;100.00;100609.09;4999487;28;20065;-71
2022/12/09 05:36:23;;;;;;;22.90;13.23;;;;;;;3.44;100.00;100603.63;5006035;28;20054;-70
2022/12/09 05:38:51;;;;;;;28.73;15.30;;;;;;;3.43;100.00;100597.63;5002187;28;20082;-70
2022/12/09 05:41:18;;;;;;;25.75;13.85;;;;;;;3.47;100.00;100598.22;5012993;28;20132;-71
2022/12/09 05:43:45;;;;;;;23.35;12.65;;;;;;;3.51;100.00;100597.91;5003086;28;20464;-71
2022/12/09 05:46:13;;;;;;;25.95;14.15;;;;;;;3.48;100.00;100594.69;5007685;28;20081;-71
2022/12/09 05:48:40;;;;;;;27.25;15.10;;;;;;;3.40;100.00;100597.00;5003693;28;20340;-70
2022/12/09 05:51:15;;;;;;;23.67;13.05;;;;;;;3.31;100.00;100599.28;5001635;28;20061;-71
2022/12/09 05:53:42;;;;;;;24.60;13.50;;;;;;;3.25;100.00;100598.84;5012189;28;20100;-70
2022/12/09 05:56:08;;;;;;;23.05;12.73;;;;;;;3.23;100.00;100596.38;5007204;28;20084;-71
2022/12/09 05:58:35;;;;;;;24.00;14.02;;;;;;;3.24;100.00;100605.81;5011165;28;20053;-71
2022/12/09 06:01:06;;;;;;;23.33;13.43;;;;;;;3.30;100.00;100608.00;4997534;28;20061;-71
2022/12/09 06:03:33;;;;;;;27.35;14.25;;;;;;;3.24;100.00;100605.81;5006462;28;20057;-71
2022/12/09 06:06:09;;;;;;;27.58;14.40;;;;;;;3.27;100.00;100602.19;5010053;28;20415;-70
2022/12/09 06:08:37;;;;;;;27.48;15.27;;;;;;;3.23;100.00;100604.13;4998993;28;20165;-71
2022/12/09 06:11:08;;;;;;;27.67;15.13;;;;;;;3.20;100.00;100604.38;5010191;28;20061;-71
2022/12/09 06:13:35;;;;;;;29.45;15.38;;;;;;;3.17;100.00;100595.03;4998870;28;20054;-71
2022/12/09 06:16:03;;;;;;;29.08;15.27;;;;;;;3.16;100.00;100598.56;5006647;28;20053;-70
2022/12/09 06:18:30;;;;;;;30.05;16.45;;;;;;;3.12;100.00;100594.53;4995700;28;20049;-70
2022/12/09 06:20:57;;;;;;;28.83;15.43;;;;;;;3.09;100.00;100593.88;5010977;28;20050;-71
2022/12/09 06:23:25;;;;;;;28.38;15.13;;;;;;;3.02;100.00;100593.50;5008981;28;20056;-69
2022/12/09 06:25:52;;;;;;;26.47;14.73;;;;;;;2.99;100.00;100598.88;5001701;28;20053;-70
2022/12/09 06:28:19;;;;;;;29.27;15.45;;;;;;;2.96;100.00;100593.91;5008217;28;20676;-70
2022/12/09 06:30:45;;;;;;;28.52;14.10;;;;;;;2.90;100.00;100602.06;4997110;28;20077;-71
2022/12/09 06:33:12;;;;;;;27.73;14.07;;;;;;;2.87;100.00;100594.50;5003823;28;20065;-71
2022/12/09 06:36:03;;;;;;;29.42;15.02;;;;;;;2.79;100.00;100602.78;5004365;28;20074;-71
2022/12/09 06:38:30;;;;;;;25.08;14.30;;;;;;;2.67;100.00;100598.44;5008834;28;20587;-70
2022/12/09 06:40:56;;;;;;;30.55;15.55;;;;;;;2.58;100.00;100585.13;5006925;28;20470;-71
2022/12/09 06:43:23;;;;;;;39.95;22.33;;;;;;;2.51;100.00;100603.75;5011143;28;20119;-71
2022/12/09 06:45:49;;;;;;;32.67;18.00;;;;;;;2.42;100.00;100601.78;5006951;28;20291;-71
2022/12/09 06:48:16;;;;;;;25.90;14.68;;;;;;;2.37;100.00;100602.06;5000809;28;20094;-71
2022/12/09 06:50:43;;;;;;;26.25;14.35;;;;;;;2.26;100.00;100596.75;5007941;28;20092;-72
2022/12/09 06:53:09;;;;;;;25.85;14.25;;;;;;;2.21;100.00;100597.03;5002862;28;20538;-71
2022/12/09 06:55:36;;;;;;;25.50;13.85;;;;;;;2.14;100.00;100595.78;5009860;28;20049;-70
2022/12/09 06:58:02;;;;;;;26.02;13.40;;;;;;;2.13;100.00;100602.69;5002066;28;20037;-71
2022/12/09 07:00:30;;;;;;;26.80;14.07;;;;;;;2.12;100.00;100608.00;4988715;28;20518;-70
2022/12/09 07:02:58;;;;;;;24.17;13.52;;;;;;;2.07;100.00;100599.69;5010486;28;20065;-71
2022/12/09 07:05:25;;;;;;;26.75;13.73;;;;;;;2.05;100.00;100604.13;5000609;28;20546;-70
2022/12/09 07:07:52;;;;;;;28.13;13.50;;;;;;;1.98;100.00;100599.34;5016145;28;20078;-71
2022/12/09 07:10:19;;;;;;;23.73;13.23;;;;;;;1.89;100.00;100610.25;5011891;28;20088;-71
2022/12/09 07:12:46;;;;;;;25.70;13.38;;;;;;;1.77;100.00;100606.69;5017295;28;20046;-70
2022/12/09 07:15:13;;;;;;;21.98;12.38;;;;;;;1.64;100.00;100613.53;5021982;28;20085;-72
2022/12/09 07:17:40;;;;;;;23.00;11.88;;;;;;;1.54;100.00;100615.00;5003582;28;20490;-72
2022/12/09 07:20:08;;;;;;;27.50;13.07;;;;;;;1.48;100.00;100610.22;5007604;28;20049;-71
2022/12/09 07:22:35;;;;;;;25.40;13.70;;;;;;;1.45;100.00;100608.66;5005814;28;20446;-71
2022/12/09 07:25:02;;;;;;;26.17;13.70;;;;;;;1.46;100.00;100617.25;5003901;28;20046;-71
2022/12/09 07:27:29;;;;;;;29.33;13.93;;;;;;;1.44;100.00;100617.31;5007617;28;20100;-70
2022/12/09 07:29:56;;;;;;;24.58;12.60;;;;;;;1.45;100.00;100625.91;5023573;28;20087;-72
2022/12/09 07:32:23;;;;;;;25.98;13.43;;;;;;;1.36;100.00;100622.13;5022276;28;20133;-72
2022/12/09 07:34:50;;;;;;;27.65;13.68;;;;;;;1.34;100.00;100624.78;5017110;28;20053;-70
2022/12/09 07:37:17;;;;;;;25.00;12.93;;;;;;;1.34;100.00;100624.78;5020962;28;20056;-72
2022/12/09 07:39:44;;;;;;;26.02;13.48;;;;;;;1.31;100.00;100629.31;5014239;28;21075;-72
2022/12/09 07:42:10;;;;;;;26.02;13.77;;;;;;;1.32;100.00;100628.41;5017671;28;20568;-73
2022/12/09 07:44:37;;;;;;;28.75;15.60;;;;;;;1.29;100.00;100626.00;5010842;28;20057;-71
2022/12/09 07:47:04;;;;;;;42.78;20.95;;;;;;;1.29;100.00;100629.41;5026173;28;20053;-72
2022/12/09 07:49:31;;;;;;;34.45;17.92;;;;;;;1.33;100.00;100630.06;5022320;28;20054;-70
2022/12/09 07:51:58;;;;;;;30.92;17.42;;;;;;;1.37;100.00;100622.03;5018592;28;20064;-72
2022/12/09 07:54:25;;;;;;;25.17;13.70;;;;;;;1.38;100.00;100623.69;5011390;28;20100;-72
2022/12/09 07:56:51;;;;;;;27.55;14.27;;;;;;;1.41;100.00;100632.19;5005055;28;20141;-70
2022/12/09 07:59:18;;;;;;;29.80;14.75;;;;;;;1.36;100.00;100635.88;5018143;28;20102;-72
2022/12/09 08:01:45;;;;;;;26.48;14.43;;;;;;;1.32;100.00;100631.00;5020688;28;20466;-71
2022/12/09 08:04:12;;;;;;;29.77;15.02;;;;;;;1.29;100.00;100638.91;5025996;28;20088;-71
2022/12/09 08:06:39;;;;;;;26.60;14.18;;;;;;;1.27;100.00;100627.84;5024915;28;20564;-71
2022/12/09 08:09:09;;;;;;;27.13;15.00;;;;;;;1.30;100.00;100630.25;5010897;28;20089;-71
2022/12/09 08:11:36;;;;;;;31.60;15.43;;;;;;;1.24;100.00;100641.78;5018041;28;20045;-71
2022/12/09 08:14:05;;;;;;;27.67;14.93;;;;;;;1.30;100.00;100641.41;5007987;28;20096;-71
2022/12/09 08:16:38;;;;;;;30.23;16.65;;;;;;;1.35;100.00;100636.81;5020681;28;20088;-71
2022/12/09 08:19:04;;;;;;;30.55;15.20;;;;;;;1.40;100.00;100646.88;5012449;28;20058;-73
2022/12/09 08:21:32;;;;;;;31.15;16.42;;;;;;;1.50;100.00;100641.97;5015695;28;20068;-72
2022/12/09 08:24:01;;;;;;;32.20;16.27;;;;;;;1.58;100.00;100648.34;5010182;28;20053;-70
2022/12/09 08:26:29;;;;;;;;;;;;;;;1.60;100.00;100639.66;5025538;28;20125;-72
2022/12/09 08:28:56;;;;;;;34.67;16.15;;;;;;;1.58;100.00;100640.56;5019965;28;20019;-72
2022/12/09 08:31:25;;;;;;;34.25;17.85;;;;;;;1.67;100.00;100640.97;5018442;28;20289;-73
2022/12/09 08:33:53;;;;;;;32.10;16.90;;;;;;;1.69;100.00;100646.88;4972811;28;20049;-72
2022/12/09 08:36:22;;;;;;;36.90;17.50;;;;;;;1.73;100.00;100643.16;5012840;28;20054;-72
2022/12/09 08:38:50;;;;;;;36.83;17.67;;;;;;;1.73;100.00;100644.00;5012893;28;20049;-71
2022/12/09 08:41:21;;;;;;;39.40;18.58;;;;;;;1.83;100.00;100643.44;5016854;28;20416;-70
2022/12/09 08:43:48;;;;;;;44.47;19.75;;;;;;;1.80;100.00;100639.25;5017637;28;20053;-71
2022/12/09 08:46:15;;;;;;;41.70;19.75;;;;;;;1.80;100.00;100641.84;5026099;28;20053;-73
2022/12/09 08:48:42;;;;;;;38.55;19.20;;;;;;;1.92;100.00;100641.13;5014632;28;20049;-71
2022/12/09 08:51:10;;;;;;;43.20;20.02;;;;;;;2.02;100.00;100640.53;5011970;28;20177;-72
2022/12/09 08:53:38;;;;;;;43.65;20.27;;;;;;;2.05;100.00;100640.34;5001265;28;20049;-71
2022/12/09 08:56:12;;;;;;;43.40;20.67;;;;;;;2.14;100.00;100645.78;5025744;28;20140;-71
2022/12/09 08:58:41;;;;;;;41.10;20.02;;;;;;;2.14;100.00;100644.94;5009831;28;20052;-71
2022/12/09 09:01:15;;;;;;;38.38;19.40;;;;;;;2.16;100.00;100643.91;5024704;28;20525;-72
2022/12/09 09:03:42;;;;;;;33.28;17.23;;;;;;;2.12;100.00;100645.03;5021766;28;20387;-71
2022/12/09 09:06:10;;;;;;;47.95;20.08;;;;;;;2.16;100.00;100645.69;5005912;28;20049;-72
2022/12/09 09:08:38;;;;;;;38.35;17.73;;;;;;;2.20;100.00;100648.91;5006819;28;20054;-71
2022/12/09 09:11:14;;;;;;;40.40;18.98;;;;;;;2.23;100.00;100652.13;5010428;28;20464;-72
2022/12/09 09:13:42;;;;;;;38.35;18.65;;;;;;;2.26;100.00;100659.69;5020421;28;20045;-73
2022/12/09 09:16:18;;;;;;;35.90;17.15;;;;;;;2.31;100.00;100652.50;5009755;28;20049;-72
2022/12/09 09:18:49;;;;;;;31.88;16.88;;;;;;;2.37;100.00;100659.84;5014569;28;20125;-72
2022/12/09 09:21:18;;;;;;;35.10;17.35;;;;;;;2.41;100.00;100655.31;5019986;28;20253;-72
2022/12/09 09:23:45;;;;;;;;;;;;;;;2.48;100.00;100666.09;5015802;28;20045;-72
2022/12/09 09:26:17;;;;;;;31.40;15.70;;;;;;;2.52;100.00;100658.03;5023178;28;19989;-71
2022/12/09 09:28:44;;;;;;;30.48;15.15;;;;;;;2.57;100.00;100671.53;5014644;28;20052;-72
2022/12/09 09:31:16;;;;;;;24.33;12.73;;;;;;;2.44;100.00;100668.06;5016596;28;20049;-72
2022/12/09 09:33:44;;;;;;;26.02;12.73;;;;;;;2.52;100.00;100672.75;5008019;28;20053;-72
2022/12/09 09:36:17;;;;;;;27.75;13.43;;;;;;;2.64;100.00;100669.34;5019245;28;20049;-72
2022/12/09 09:38:44;;;;;;;29.67;14.68;;;;;;;2.68;100.00;100670.00;5023596;28;20534;-72
2022/12/09 09:41:24;;;;;;;27.10;12.70;;;;;;;2.78;100.00;100668.47;5013014;28;20114;-71
2022/12/09 09:43:51;;;;;;;24.88;12.48;;;;;;;2.84;100.00;100670.66;5022934;28;20100;-72
2022/12/09 09:46:46;;;;;;;26.98;12.45;;;;;;;2.93;100.00;100675.25;5007950;28;20103;-72
2022/12/09 09:49:27;;;;;;;27.48;14.10;;;;;;;2.92;100.00;100675.34;5003102;28;20176;-73
2022/12/09 09:51:54;;;;;;;30.30;15.45;;;;;;;2.95;100.00;100668.19;5007494;28;20132;-70
2022/12/09 09:54:21;;;;;;;29.00;14.38;;;;;;;2.91;100.00;100669.31;5014848;28;20066;-72
2022/12/09 09:57:13;;;;;;;28.52;15.77;;;;;;;3.02;100.00;100665.19;5013965;28;20056;-72
2022/12/09 09:59:58;;;;;;;33.20;15.02;;;;;;;2.99;100.00;100658.47;5017402;28;20084;-72
2022/12/09 10:02:55;;;;;;;29.45;15.25;;;;;;;3.04;100.00;100665.91;5004254;28;20063;-72
2022/12/09 10:05:28;;;;;;;31.95;15.98;;;;;;;3.08;100.00;100660.44;5004845;28;20060;-72
2022/12/09 10:08:17;;;;;;;35.40;16.88;;;;;;;3.14;100.00;100647.09;5006361;28;20505;-72
2022/12/09 10:10:58;;;;;;;29.13;15.98;;;;;;;3.13;100.00;100653.19;5015141;28;20100;-72
2022/12/09 10:13:46;;;;;;;32.75;15.30;;;;;;;3.16;100.00;100653.00;5022826;28;20112;-72
2022/12/09 10:16:30;;;;;;;37.00;16.67;;;;;;;3.22;100.00;100656.13;5011656;28;20469;-71
2022/12/09 10:19:06;;;;;;;32.35;15.75;;;;;;;3.24;100.00;100643.88;5014591;28;20123;-73
2022/12/09 10:21:39;;;;;;;32.63;15.43;;;;;;;3.29;100.00;100649.56;5004368;28;20056;-73
2022/12/09 10:24:30;;;;;;;29.55;15.75;;;;;;;3.25;100.00;100646.34;5021207;28;20081;-66
2022/12/09 10:27:13;;;;;;;30.08;14.77;;;;;;;3.24;100.00;100651.66;5010215;28;20099;-67
2022/12/09 10:29:55;;;;;;;29.63;16.02;;;;;;;3.20;100.00;100652.81;5019089;28;20073;-66
2022/12/09 10:32:27;;;;;;;30.83;15.68;;;;;;;3.17;100.00;100651.22;4993773;28;20064;-67
2022/12/09 10:34:54;;;;;;;28.27;14.38;;;;;;;3.22;100.00;100656.13;5018512;28;20498;-69
2022/12/09 10:37:33;;;;;;;28.35;14.45;;;;;;;3.32;100.00;100647.59;5017538;28;20136;-69
2022/12/09 10:40:18;;;;;;;31.55;14.23;;;;;;;3.40;100.00;100644.50;5018555;28;20049;-68
2022/12/09 10:45:53;;;;;;;26.58;13.55;;;;;;;3.38;100.00;100642.94;5006732;28;20052;-66
2022/12/09 10:48:51;;;;;;;25.75;12.23;;;;;;;3.41;100.00;100643.56;5004134;28;20046;-68
2022/12/09 10:51:31;;;;;;;27.60;13.25;;;;;;;3.51;100.00;100639.41;4993319;28;20092;-68
2022/12/09 10:54:10;;;;;;;28.85;13.70;;;;;;;3.44;100.00;100643.34;5023552;28;20064;-67
2022/12/09 10:57:02;;;;;;;27.63;13.00;;;;;;;3.48;100.00;100643.97;5010952;28;20081;-68
2022/12/09 10:59:29;;;;;;;32.72;14.27;;;;;;;3.49;100.00;100636.09;5009686;28;20486;-67
2022/12/09 11:02:01;;;;;;;26.50;13.07;;;;;;;3.52;100.00;100635.03;5005634;28;20142;-68
2022/12/09 11:04:40;;;;;;;24.90;12.52;;;;;;;3.67;100.00;100634.00;5022059;28;20045;-67
2022/12/09 11:07:16;;;;;;;25.38;13.57;;;;;;;3.70;100.00;100636.34;4999061;28;20060;-67
2022/12/09 11:09:47;;;;;;;26.35;13.85;;;;;;;3.70;100.00;100635.53;5015997;28;20414;-68
2022/12/09 11:12:26;;;;;;;27.30;13.98;;;;;;;3.72;100.00;100639.69;5005480;28;20064;-67
2022/12/09 11:15:19;;;;;;;27.42;14.23;;;;;;;3.78;100.00;100624.63;5006035;28;20049;-67
2022/12/09 11:17:58;;;;;;;27.67;13.52;;;;;;;3.79;100.00;100621.09;5017514;28;20521;-68
2022/12/09 11:20:28;;;;;;;27.75;14.13;;;;;;;3.82;100.00;100628.66;5004686;28;20140;-70
2022/12/09 11:23:00;;;;;;;28.20;15.02;;;;;;;3.62;100.00;100624.84;5020005;28;20049;-67
2022/12/09 11:25:30;;;;;;;29.83;15.05;;;;;;;3.51;100.00;100631.63;5018855;28;20057;-67
2022/12/09 11:28:00;;;;;;;28.33;15.43;;;;;;;3.51;100.00;100621.25;5020472;28;20099;-67